Time;durP1;ratioP1;P1;durP2;ratioP2;P2;SDS_P1;SDS_P2;PMS_P1;PMS_P2;Temp;Humidity;BMP_temperature;BMP_pressure;BME280_temperature;BME280_humidity;BME280_pressure;Samples;Min_cycle;Max_cycle;Signal;HPM_P1;HPM_P2
2023/07/19 00:02:09;;;;;;;12.95;9.98;;;16.70;99.90;;;;;;4988655;28;20053;-79
2023/07/19 00:04:35;;;;;;;12.75;7.55;;;16.70;99.90;;;;;;4988880;28;20082;-80
2023/07/19 00:07:00;;;;;;;7.78;6.88;;;16.70;99.90;;;;;;4988481;28;20131;-80
2023/07/19 00:09:26;;;;;;;9.32;8.23;;;16.70;99.90;;;;;;4981753;28;20623;-80
2023/07/19 00:11:52;;;;;;;9.50;8.52;;;16.60;99.90;;;;;;5009174;28;20038;-79
2023/07/19 00:14:18;;;;;;;9.77;8.48;;;16.70;99.90;;;;;;5008877;28;20551;-80
2023/07/19 00:16:44;;;;;;;11.07;9.02;;;16.70;99.90;;;;;;4991306;28;20468;-80
2023/07/19 00:19:09;;;;;;;11.13;9.50;;;16.70;99.90;;;;;;4983869;28;20046;-80
2023/07/19 00:21:35;;;;;;;12.23;9.48;;;16.60;99.90;;;;;;4988440;28;20089;-80
2023/07/19 00:24:01;;;;;;;13.18;12.13;;;16.60;99.90;;;;;;4988283;28;20053;-80
2023/07/19 00:26:27;;;;;;;12.55;11.43;;;16.60;99.90;;;;;;4972243;28;20061;-79
2023/07/19 00:28:53;;;;;;;8.75;7.85;;;16.60;99.90;;;;;;4992415;28;20030;-80
2023/07/19 00:31:18;;;;;;;12.48;11.27;;;16.60;99.90;;;;;;5007524;28;20073;-79
2023/07/19 00:33:44;;;;;;;13.85;12.63;;;16.60;99.90;;;;;;5009050;28;20400;-79
2023/07/19 00:36:09;;;;;;;9.27;8.38;;;16.60;99.90;;;;;;5007455;28;20044;-80
2023/07/19 00:38:35;;;;;;;12.85;11.80;;;16.60;99.90;;;;;;5005048;28;20038;-80
2023/07/19 00:41:01;;;;;;;10.63;9.63;;;16.60;99.90;;;;;;4987785;28;20531;-79
2023/07/19 00:43:26;;;;;;;11.77;10.68;;;16.60;99.90;;;;;;4971199;28;20046;-79
2023/07/19 00:45:54;;;;;;;10.95;9.95;;;16.50;99.90;;;;;;5004270;28;20663;-80
2023/07/19 00:48:21;;;;;;;13.50;12.27;;;16.50;99.90;;;;;;4989016;28;20038;-80
2023/07/19 00:50:50;;;;;;;8.73;7.82;;;16.60;99.90;;;;;;4989034;28;20030;-80
2023/07/19 00:53:17;;;;;;;12.27;11.27;;;16.50;99.90;;;;;;4988002;28;20393;-80
2023/07/19 00:55:47;;;;;;;10.70;7.43;;;16.50;99.90;;;;;;4988964;28;20042;-80
2023/07/19 00:58:14;;;;;;;11.52;10.23;;;16.50;99.90;;;;;;4987205;28;20043;-80
2023/07/19 01:00:39;;;;;;;12.80;11.18;;;16.40;99.90;;;;;;5006437;28;20038;-80
2023/07/19 01:03:05;;;;;;;11.00;9.77;;;16.40;99.90;;;;;;5007360;28;20026;-79
2023/07/19 01:05:31;;;;;;;12.40;8.95;;;16.40;99.90;;;;;;4991186;28;20077;-80
2023/07/19 01:07:58;;;;;;;11.73;10.00;;;16.40;99.90;;;;;;5008607;28;20062;-80
2023/07/19 01:10:27;;;;;;;13.98;10.70;;;16.40;99.90;;;;;;4989810;28;20034;-80
2023/07/19 01:13:22;;;;;;;11.95;10.30;;;16.40;99.90;;;;;;4971276;28;20490;-79
2023/07/19 01:15:48;;;;;;;11.48;10.25;;;16.50;99.90;;;;;;4979975;28;20051;-80
2023/07/19 01:18:14;;;;;;;8.85;7.25;;;16.40;99.90;;;;;;4991397;28;20108;-79
2023/07/19 01:20:39;;;;;;;10.48;9.57;;;16.50;99.90;;;;;;5009714;28;20559;-80
2023/07/19 01:23:05;;;;;;;10.82;8.57;;;16.40;99.90;;;;;;5010884;28;20422;-79
2023/07/19 01:25:31;;;;;;;11.10;8.27;;;16.40;99.90;;;;;;5010281;28;20481;-80
2023/07/19 01:27:57;;;;;;;13.50;12.18;;;16.40;99.90;;;;;;5010703;28;20416;-79
2023/07/19 01:30:23;;;;;;;11.02;8.93;;;16.50;99.90;;;;;;4994608;28;20098;-79
2023/07/19 01:32:49;;;;;;;10.82;8.85;;;16.50;99.90;;;;;;4991194;28;20045;-79
2023/07/19 01:35:16;;;;;;;12.18;10.90;;;16.40;99.90;;;;;;4991124;28;20085;-79
2023/07/19 01:37:42;;;;;;;12.63;8.88;;;16.40;99.90;;;;;;4975172;28;20085;-79
2023/07/19 01:40:10;;;;;;;11.75;8.65;;;16.40;99.90;;;;;;4987760;28;20080;-79
2023/07/19 01:42:35;;;;;;;12.02;10.93;;;16.30;99.90;;;;;;5010958;28;20038;-79
2023/07/19 01:45:01;;;;;;;11.90;10.88;;;16.40;99.90;;;;;;5010859;28;20049;-79
2023/07/19 01:47:27;;;;;;;13.18;10.82;;;16.40;99.90;;;;;;5010463;28;20045;-79
2023/07/19 01:49:53;;;;;;;10.82;8.27;;;16.40;99.90;;;;;;5000200;28;20049;-79
2023/07/19 01:52:18;;;;;;;14.40;13.18;;;16.40;99.90;;;;;;4990778;28;20046;-79
2023/07/19 01:54:44;;;;;;;11.88;9.23;;;16.30;99.90;;;;;;4974097;28;20050;-79
2023/07/19 01:57:10;;;;;;;14.63;13.32;;;16.20;99.90;;;;;;4974468;28;20189;-79
2023/07/19 01:59:36;;;;;;;15.27;13.85;;;16.20;99.90;;;;;;5000865;28;20603;-79
2023/07/19 02:02:02;;;;;;;14.80;13.55;;;16.20;99.90;;;;;;5010601;28;20096;-79
2023/07/19 02:04:28;;;;;;;15.35;12.45;;;16.20;99.90;;;;;;5001999;28;20045;-79
2023/07/19 02:06:53;;;;;;;13.55;12.13;;;16.20;99.90;;;;;;5029903;28;20506;-79
2023/07/19 02:09:19;;;;;;;13.23;11.82;;;16.20;99.90;;;;;;5023892;28;20033;-79
2023/07/19 02:11:45;;;;;;;11.75;10.25;;;16.20;99.90;;;;;;5009840;28;20444;-79
2023/07/19 02:14:11;;;;;;;14.50;13.07;;;16.20;99.90;;;;;;4993683;28;20092;-79
2023/07/19 02:16:36;;;;;;;11.70;10.60;;;16.20;99.90;;;;;;5010057;28;20077;-79
2023/07/19 02:19:03;;;;;;;14.93;13.55;;;16.20;99.90;;;;;;4997286;28;20042;-79
2023/07/19 02:21:29;;;;;;;11.38;10.13;;;16.20;99.90;;;;;;5030955;28;20052;-79
2023/07/19 02:23:54;;;;;;;13.88;12.48;;;16.20;99.90;;;;;;5029055;28;20045;-79
2023/07/19 02:26:20;;;;;;;12.23;10.93;;;16.20;99.90;;;;;;5013006;28;20463;-79
2023/07/19 02:28:46;;;;;;;13.02;11.80;;;16.20;99.90;;;;;;5027853;28;20037;-79
2023/07/19 02:31:12;;;;;;;17.95;16.50;;;16.30;99.90;;;;;;5009292;28;20053;-79
2023/07/19 02:33:37;;;;;;;15.43;14.32;;;16.30;99.90;;;;;;5009641;28;20069;-79
2023/07/19 02:36:06;;;;;;;14.20;12.85;;;16.30;99.90;;;;;;5010773;28;20061;-79
2023/07/19 02:38:32;;;;;;;10.55;9.32;;;16.30;99.90;;;;;;5009205;28;20041;-79
2023/07/19 02:40:59;;;;;;;14.20;12.23;;;16.30;99.90;;;;;;5028818;28;20571;-79
2023/07/19 02:43:25;;;;;;;12.63;11.52;;;16.30;99.90;;;;;;5012580;28;20483;-79
2023/07/19 02:45:55;;;;;;;12.02;10.68;;;16.20;99.90;;;;;;5029825;28;20038;-79
2023/07/19 02:48:21;;;;;;;16.42;14.77;;;16.30;99.90;;;;;;5029028;28;20044;-79
2023/07/19 02:50:47;;;;;;;11.93;10.77;;;16.20;99.90;;;;;;5012746;28;20424;-79
2023/07/19 02:53:13;;;;;;;14.15;12.48;;;16.20;99.90;;;;;;5009091;28;20400;-79
2023/07/19 02:55:40;;;;;;;11.18;10.05;;;16.20;99.90;;;;;;5010389;28;20045;-79
2023/07/19 02:58:06;;;;;;;11.95;10.70;;;16.20;99.90;;;;;;4993031;28;20049;-79
2023/07/19 03:00:31;;;;;;;14.07;12.52;;;16.10;99.90;;;;;;5023659;28;20033;-79
2023/07/19 03:02:58;;;;;;;13.60;10.90;;;16.10;99.90;;;;;;5012339;28;20168;-79
2023/07/19 03:05:23;;;;;;;12.38;10.80;;;16.10;99.90;;;;;;5028761;28;20053;-79
2023/07/19 03:07:49;;;;;;;17.45;15.52;;;16.10;99.90;;;;;;5029729;28;20060;-79
2023/07/19 03:10:15;;;;;;;14.55;12.27;;;16.20;99.90;;;;;;5015517;28;20080;-79
2023/07/19 03:12:41;;;;;;;12.93;11.40;;;16.20;99.90;;;;;;5008912;28;20077;-79
2023/07/19 03:15:07;;;;;;;14.02;12.77;;;16.10;99.90;;;;;;5009059;28;20558;-79
2023/07/19 03:17:33;;;;;;;14.57;10.48;;;16.10;99.90;;;;;;5008638;28;20056;-79
2023/07/19 03:19:59;;;;;;;12.52;10.65;;;16.10;99.90;;;;;;5002330;28;20045;-79
2023/07/19 03:22:24;;;;;;;14.70;13.48;;;16.10;99.90;;;;;;5027931;28;20460;-79
2023/07/19 03:24:50;;;;;;;13.18;11.85;;;16.00;99.90;;;;;;5029958;28;20072;-79
2023/07/19 03:27:15;;;;;;;11.73;10.38;;;16.00;99.90;;;;;;5029737;28;20071;-79
2023/07/19 03:29:41;;;;;;;10.32;8.77;;;16.00;99.90;;;;;;5020449;28;20045;-79
2023/07/19 03:32:07;;;;;;;12.15;9.80;;;16.00;99.90;;;;;;5009944;28;20401;-79
2023/07/19 03:34:34;;;;;;;11.20;10.15;;;16.00;99.90;;;;;;5008585;28;20053;-79
2023/07/19 03:37:00;;;;;;;11.95;10.90;;;16.00;99.90;;;;;;4991691;28;20488;-79
2023/07/19 03:39:25;;;;;;;13.40;12.30;;;16.00;99.90;;;;;;5013451;28;20068;-79
2023/07/19 03:41:51;;;;;;;12.23;10.52;;;16.00;99.90;;;;;;5011717;28;20392;-79
2023/07/19 03:44:17;;;;;;;13.60;9.95;;;16.00;99.90;;;;;;5028224;28;20467;-79
2023/07/19 03:46:43;;;;;;;15.05;12.82;;;16.00;99.90;;;;;;5028505;28;20500;-79
2023/07/19 03:49:09;;;;;;;18.42;16.48;;;16.00;99.90;;;;;;5025210;28;20040;-79
2023/07/19 03:51:34;;;;;;;12.63;11.15;;;16.00;99.90;;;;;;4991209;28;20053;-79
2023/07/19 03:54:00;;;;;;;14.10;12.27;;;16.00;99.90;;;;;;5027807;28;20030;-79
2023/07/19 03:56:25;;;;;;;14.63;13.35;;;16.10;99.90;;;;;;5027866;28;20045;-80
2023/07/19 03:58:51;;;;;;;12.20;10.90;;;16.10;99.90;;;;;;5014652;28;20033;-79
2023/07/19 04:01:17;;;;;;;12.93;11.52;;;16.10;99.90;;;;;;5008719;28;20034;-80
2023/07/19 04:03:43;;;;;;;15.90;14.45;;;16.20;99.90;;;;;;5009404;28;20123;-79
2023/07/19 04:06:09;;;;;;;13.25;11.88;;;16.20;99.90;;;;;;4991291;28;20680;-79
2023/07/19 04:08:35;;;;;;;18.38;16.67;;;16.20;99.90;;;;;;5019805;28;20147;-80
2023/07/19 04:11:01;;;;;;;13.43;11.38;;;16.20;99.90;;;;;;5027960;28;20037;-79
2023/07/19 04:13:27;;;;;;;14.32;11.63;;;16.20;99.90;;;;;;5022415;28;20045;-79
2023/07/19 04:15:53;;;;;;;17.95;15.65;;;16.20;99.90;;;;;;5009705;28;20507;-80
2023/07/19 04:18:19;;;;;;;14.07;11.43;;;16.30;99.90;;;;;;4993657;28;20057;-79
2023/07/19 04:20:45;;;;;;;16.63;15.20;;;16.30;99.90;;;;;;5029249;28;20135;-80
2023/07/19 04:23:11;;;;;;;18.00;15.57;;;16.30;99.90;;;;;;5011573;28;20124;-80
2023/07/19 04:25:37;;;;;;;12.23;10.95;;;16.40;99.90;;;;;;5028091;28;20495;-80
2023/07/19 04:28:03;;;;;;;17.25;15.45;;;16.30;99.90;;;;;;5003548;28;20037;-79
2023/07/19 04:30:29;;;;;;;13.93;12.52;;;16.30;99.90;;;;;;4992014;28;20369;-79
2023/07/19 04:32:55;;;;;;;14.90;11.35;;;16.40;99.90;;;;;;5007691;28;20502;-80
2023/07/19 04:35:22;;;;;;;14.05;12.77;;;16.30;99.90;;;;;;5008889;28;20488;-80
2023/07/19 04:37:49;;;;;;;13.40;11.38;;;16.40;99.90;;;;;;5013191;28;20045;-81
2023/07/19 04:40:16;;;;;;;15.73;13.90;;;16.50;99.90;;;;;;5029375;28;20042;-80
2023/07/19 04:42:42;;;;;;;12.77;11.43;;;16.50;99.90;;;;;;5028890;28;20426;-81
2023/07/19 04:45:08;;;;;;;13.07;11.48;;;16.80;99.90;;;;;;5029120;28;20046;-80
2023/07/19 04:47:34;;;;;;;14.05;12.63;;;16.60;99.90;;;;;;5010546;28;20047;-80
2023/07/19 04:49:59;;;;;;;17.85;12.25;;;16.60;99.90;;;;;;5027149;28;20042;-80
2023/07/19 04:52:25;;;;;;;12.25;10.98;;;16.70;99.90;;;;;;5031050;28;20038;-80
2023/07/19 04:54:50;;;;;;;13.35;11.38;;;16.70;99.90;;;;;;5031814;28;20045;-80
2023/07/19 04:57:16;;;;;;;16.30;11.90;;;16.90;99.90;;;;;;5030377;28;20029;-80
2023/07/19 04:59:42;;;;;;;14.43;12.35;;;16.80;99.90;;;;;;5013173;28;20116;-80
2023/07/19 05:02:07;;;;;;;13.30;10.63;;;16.70;99.90;;;;;;4995748;28;20128;-80
2023/07/19 05:04:33;;;;;;;14.43;10.55;;;16.90;99.90;;;;;;4995074;28;20095;-80
2023/07/19 05:06:59;;;;;;;14.13;9.20;;;17.00;99.90;;;;;;5011769;28;20038;-80
2023/07/19 05:09:25;;;;;;;11.43;8.77;;;17.00;99.90;;;;;;5029451;28;20037;-79
2023/07/19 05:11:51;;;;;;;11.48;9.00;;;17.10;99.90;;;;;;5031301;28;20139;-80
2023/07/19 05:14:17;;;;;;;11.55;10.13;;;17.20;99.90;;;;;;5032542;28;20044;-81
2023/07/19 05:16:43;;;;;;;11.52;8.65;;;17.30;99.90;;;;;;5014466;28;20042;-80
2023/07/19 05:19:09;;;;;;;14.38;9.45;;;17.30;99.90;;;;;;5014031;28;20420;-80
2023/07/19 05:21:35;;;;;;;12.43;10.13;;;17.40;99.90;;;;;;5011082;28;20091;-80
2023/07/19 05:24:00;;;;;;;16.70;10.85;;;17.40;99.90;;;;;;5011039;28;20045;-80
2023/07/19 05:26:26;;;;;;;11.77;9.70;;;17.50;99.90;;;;;;5010743;28;20554;-80
2023/07/19 05:28:52;;;;;;;12.27;8.00;;;17.50;99.90;;;;;;5006597;28;20045;-80
2023/07/19 05:31:18;;;;;;;13.07;8.30;;;17.60;99.90;;;;;;5030286;28;20506;-80
2023/07/19 05:33:43;;;;;;;10.13;6.70;;;17.70;99.90;;;;;;5028705;28;20506;-80
2023/07/19 05:36:09;;;;;;;9.73;8.00;;;17.80;99.90;;;;;;5012594;28;20124;-80
2023/07/19 05:38:35;;;;;;;11.68;8.40;;;17.80;99.90;;;;;;4995297;28;20133;-80
2023/07/19 05:41:02;;;;;;;10.55;7.35;;;17.80;99.90;;;;;;4992394;28;20128;-80
2023/07/19 05:43:31;;;;;;;9.80;7.30;;;17.90;99.90;;;;;;4993007;28;20489;-80
2023/07/19 05:46:08;;;;;;;12.15;7.85;;;17.80;99.90;;;;;;5008595;28;20133;-80
2023/07/19 05:48:34;;;;;;;9.75;7.53;;;17.80;99.90;;;;;;5026050;28;20040;-80
2023/07/19 05:51:03;;;;;;;10.30;7.30;;;17.80;99.90;;;;;;5030373;28;20052;-80
2023/07/19 05:53:29;;;;;;;11.82;7.65;;;17.80;99.90;;;;;;5030178;28;20571;-80
2023/07/19 05:55:56;;;;;;;13.00;8.15;;;17.80;99.90;;;;;;5030742;28;20120;-80
2023/07/19 05:58:22;;;;;;;10.30;6.93;;;17.80;99.90;;;;;;4999489;28;20049;-80
2023/07/19 06:00:48;;;;;;;8.25;6.88;;;17.80;99.90;;;;;;4993542;28;20038;-80
2023/07/19 06:03:16;;;;;;;13.27;7.82;;;17.90;99.90;;;;;;5010434;28;20113;-80
2023/07/19 06:05:43;;;;;;;8.18;6.70;;;17.90;99.90;;;;;;4993870;28;20034;-79
2023/07/19 06:08:10;;;;;;;8.32;6.82;;;17.90;99.90;;;;;;5022317;28;20076;-80
2023/07/19 06:10:35;;;;;;;14.32;8.05;;;17.90;99.90;;;;;;5029862;28;20033;-80
2023/07/19 06:13:03;;;;;;;14.73;8.32;;;17.80;99.90;;;;;;5029627;28;20041;-80
2023/07/19 06:15:29;;;;;;;10.13;7.65;;;17.90;99.90;;;;;;5029495;28;20087;-79
2023/07/19 06:17:55;;;;;;;11.20;7.78;;;17.80;99.90;;;;;;5020661;28;20050;-79
2023/07/19 06:20:21;;;;;;;10.30;7.80;;;17.80;99.90;;;;;;4993715;28;20138;-79
2023/07/19 06:22:46;;;;;;;12.98;7.82;;;17.80;99.90;;;;;;5009961;28;20081;-79
2023/07/19 06:25:15;;;;;;;10.15;7.53;;;17.80;99.90;;;;;;5011717;28;20041;-79
2023/07/19 06:27:42;;;;;;;14.15;7.95;;;17.80;99.90;;;;;;5029749;28;20084;-80
2023/07/19 06:30:11;;;;;;;14.60;8.02;;;17.80;99.90;;;;;;5029169;28;20096;-79
2023/07/19 06:32:37;;;;;;;14.38;7.95;;;17.80;99.90;;;;;;5030941;28;20120;-79
2023/07/19 06:35:04;;;;;;;10.85;7.88;;;17.90;99.90;;;;;;5012745;28;20129;-80
2023/07/19 06:37:29;;;;;;;13.63;8.02;;;17.80;99.90;;;;;;5010934;28;20053;-80
2023/07/19 06:39:55;;;;;;;12.68;7.95;;;17.80;99.90;;;;;;5009647;28;20038;-80
2023/07/19 06:42:20;;;;;;;12.13;7.78;;;17.80;99.90;;;;;;4993426;28;20140;-79
2023/07/19 06:44:47;;;;;;;10.23;6.78;;;17.70;99.90;;;;;;5009234;28;20080;-80
2023/07/19 06:47:14;;;;;;;11.65;7.10;;;17.70;99.90;;;;;;5010348;28;20099;-80
2023/07/19 06:49:41;;;;;;;10.00;7.07;;;17.70;99.90;;;;;;5029461;28;20041;-79
2023/07/19 06:52:07;;;;;;;8.27;6.65;;;17.60;99.90;;;;;;5012872;28;20045;-80
2023/07/19 06:54:33;;;;;;;13.63;6.72;;;17.70;99.90;;;;;;5012521;28;20056;-79
2023/07/19 06:56:59;;;;;;;11.60;7.10;;;17.70;99.90;;;;;;5015060;28;20168;-80
2023/07/19 06:59:25;;;;;;;10.45;6.82;;;17.70;99.90;;;;;;5009138;28;20038;-79
2023/07/19 07:01:50;;;;;;;11.13;7.32;;;17.70;99.90;;;;;;5010827;28;20538;-80
2023/07/19 07:04:16;;;;;;;9.05;6.70;;;17.80;99.90;;;;;;5010718;28;20042;-80
2023/07/19 07:06:41;;;;;;;9.35;6.72;;;17.90;99.90;;;;;;5005291;28;20512;-79
2023/07/19 07:09:07;;;;;;;12.13;6.10;;;18.00;99.90;;;;;;5028858;28;20099;-79
2023/07/19 07:11:33;;;;;;;10.60;6.28;;;18.10;99.90;;;;;;5012389;28;20124;-79
2023/07/19 07:13:58;;;;;;;12.73;7.05;;;18.20;99.90;;;;;;5029046;28;20448;-79
2023/07/19 07:16:24;;;;;;;9.48;6.43;;;18.30;99.90;;;;;;5002458;28;20224;-80
2023/07/19 07:18:50;;;;;;;13.93;6.72;;;18.30;99.90;;;;;;5008915;28;20085;-79
2023/07/19 07:21:15;;;;;;;11.27;6.40;;;18.40;99.90;;;;;;4992632;28;20056;-80
2023/07/19 07:23:41;;;;;;;12.65;6.00;;;18.50;99.90;;;;;;5010207;28;20046;-80
2023/07/19 07:26:07;;;;;;;10.52;5.95;;;18.60;99.90;;;;;;4999626;28;20095;-80
2023/07/19 07:28:33;;;;;;;10.98;6.45;;;18.70;99.90;;;;;;5027968;28;20107;-80
2023/07/19 07:31:05;;;;;;;8.18;6.65;;;18.70;99.90;;;;;;5028504;28;20125;-80
2023/07/19 07:33:31;;;;;;;6.45;5.70;;;18.80;99.90;;;;;;5011951;28;20041;-80
2023/07/19 07:35:57;;;;;;;8.48;6.03;;;18.80;99.90;;;;;;5022624;28;20099;-79
2023/07/19 07:38:22;;;;;;;7.05;5.40;;;18.80;99.90;;;;;;5008626;28;20041;-80
2023/07/19 07:40:48;;;;;;;6.22;5.47;;;18.80;99.90;;;;;;5008756;28;20038;-80
2023/07/19 07:43:14;;;;;;;9.35;5.35;;;19.00;99.90;;;;;;5008241;28;20480;-80
2023/07/19 07:45:39;;;;;;;9.45;6.55;;;19.10;99.90;;;;;;5011831;28;20033;-80
2023/07/19 07:48:05;;;;;;;6.53;5.90;;;19.20;99.90;;;;;;5028188;28;20041;-80
2023/07/19 07:50:31;;;;;;;10.57;5.63;;;19.30;99.90;;;;;;5029610;28;20042;-80
2023/07/19 07:52:56;;;;;;;8.68;6.18;;;19.30;99.90;;;;;;5029077;28;20549;-80
2023/07/19 07:55:22;;;;;;;8.45;6.53;;;19.40;99.90;;;;;;5027564;28;20045;-80
2023/07/19 07:57:48;;;;;;;11.30;7.80;;;19.50;99.90;;;;;;5007947;28;20431;-80
2023/07/19 08:00:15;;;;;;;10.38;6.63;;;19.70;99.90;;;;;;5008694;28;20046;-80
2023/07/19 08:02:40;;;;;;;7.47;6.35;;;20.00;99.90;;;;;;5008639;28;20037;-80
2023/07/19 08:05:06;;;;;;;9.15;6.38;;;20.30;99.90;;;;;;5008138;28;20600;-80
2023/07/19 08:07:32;;;;;;;7.57;5.53;;;20.50;99.90;;;;;;5025991;28;20045;-80
2023/07/19 08:09:58;;;;;;;7.13;5.68;;;20.60;99.90;;;;;;5011838;28;20033;-80
2023/07/19 08:12:24;;;;;;;7.45;5.53;;;20.70;99.90;;;;;;5027293;28;20039;-80
2023/07/19 08:14:50;;;;;;;6.75;4.78;;;20.90;99.90;;;;;;5011311;28;20044;-80
2023/07/19 08:17:16;;;;;;;8.02;4.72;;;21.10;99.90;;;;;;4995330;28;20057;-80
2023/07/19 08:19:41;;;;;;;6.93;4.75;;;21.20;99.90;;;;;;4991659;28;20056;-80
2023/07/19 08:22:22;;;;;;;7.38;5.10;;;21.40;99.90;;;;;;5008197;28;20038;-80
2023/07/19 08:24:48;;;;;;;6.25;4.65;;;21.50;99.90;;;;;;4991151;28;20037;-81
2023/07/19 08:27:13;;;;;;;5.82;4.45;;;21.70;99.90;;;;;;5023444;28;20033;-81
2023/07/19 08:29:39;;;;;;;6.50;4.80;;;21.80;99.90;;;;;;5011118;28;20033;-81
2023/07/19 08:32:05;;;;;;;5.32;4.07;;;21.80;99.90;;;;;;5011393;28;20041;-80
2023/07/19 08:34:30;;;;;;;5.15;3.83;;;21.80;99.90;;;;;;5028995;28;20476;-80
2023/07/19 08:36:56;;;;;;;7.32;3.88;;;21.80;99.90;;;;;;5015130;28;20044;-80
2023/07/19 08:39:23;;;;;;;6.05;4.53;;;21.80;99.90;;;;;;5008030;28;20348;-80
2023/07/19 08:41:49;;;;;;;5.03;2.92;;;21.80;99.90;;;;;;5007336;28;20057;-80
2023/07/19 08:44:16;;;;;;;3.83;3.13;;;21.70;99.90;;;;;;5008947;28;20476;-81
2023/07/19 08:46:44;;;;;;;4.38;2.92;;;21.50;99.90;;;;;;5017792;28;20511;-80
2023/07/19 08:49:10;;;;;;;6.40;3.17;;;21.30;99.90;;;;;;5010795;28;20045;-80
2023/07/19 08:51:39;;;;;;;4.28;2.67;;;21.20;99.90;;;;;;5027483;28;20041;-80
2023/07/19 08:54:05;;;;;;;6.57;3.30;;;21.10;99.90;;;;;;5027308;28;20079;-80
2023/07/19 08:56:33;;;;;;;4.85;3.17;;;21.00;99.90;;;;;;5018046;28;20038;-80
2023/07/19 08:58:59;;;;;;;7.18;3.13;;;21.00;99.90;;;;;;5007695;28;20042;-80
2023/07/19 09:01:24;;;;;;;4.40;2.85;;;20.80;99.90;;;;;;4991575;28;20515;-80
2023/07/19 09:03:50;;;;;;;4.93;3.10;;;20.90;99.90;;;;;;4991376;28;20045;-81
2023/07/19 09:06:24;;;;;;;5.25;3.50;;;20.90;99.90;;;;;;5013987;28;20037;-80
2023/07/19 09:08:51;;;;;;;5.00;3.60;;;21.00;99.90;;;;;;5026825;28;20050;-80
2023/07/19 09:11:22;;;;;;;4.32;3.88;;;21.20;99.90;;;;;;5011113;28;20512;-80
2023/07/19 09:13:58;;;;;;;7.18;5.00;;;21.40;99.90;;;;;;5027238;28;20491;-80
2023/07/19 09:16:27;;;;;;;5.97;4.20;;;21.60;99.90;;;;;;5021055;28;20061;-80
2023/07/19 09:18:56;;;;;;;6.53;5.93;;;21.80;99.90;;;;;;5008727;28;20057;-81
2023/07/19 09:21:31;;;;;;;8.43;7.45;;;22.20;99.90;;;;;;4990970;28;20077;-80
2023/07/19 09:23:57;;;;;;;8.63;7.53;;;22.80;99.90;;;;;;4990960;28;20127;-81
2023/07/19 09:26:23;;;;;;;10.10;9.00;;;23.40;99.90;;;;;;5015234;28;20053;-80
2023/07/19 09:28:51;;;;;;;11.38;10.45;;;23.80;99.90;;;;;;5027138;28;20045;-81
2023/07/19 09:31:17;;;;;;;11.98;8.07;;;24.20;99.90;;;;;;5028637;28;20049;-80
2023/07/19 09:33:43;;;;;;;6.13;3.92;;;24.80;99.90;;;;;;5027271;28;20053;-81
2023/07/19 09:36:08;;;;;;;8.75;2.15;;;25.30;99.90;;;;;;5022324;28;20117;-80
2023/07/19 09:38:34;;;;;;;27.15;25.55;;;25.90;99.90;;;;;;5010412;28;20416;-81
2023/07/19 09:41:00;;;;;;;42.65;40.05;;;26.30;99.90;;;;;;4994489;28;20500;-81
2023/07/19 09:43:25;;;;;;;22.05;20.65;;;26.80;99.90;;;;;;5010961;28;20046;-81
2023/07/19 09:45:51;;;;;;;57.42;54.20;;;26.90;99.40;;;;;;5012740;28;20120;-81
2023/07/19 09:48:22;;;;;;;48.97;45.90;;;26.80;99.60;;;;;;5030593;28;20231;-81
2023/07/19 09:50:49;;;;;;;58.47;55.28;;;26.30;97.10;;;;;;5030551;28;20048;-81
2023/07/19 09:53:15;;;;;;;53.20;50.28;;;26.00;99.00;;;;;;5029953;28;20029;-81
2023/07/19 09:55:45;;;;;;;50.60;47.85;;;25.60;99.00;;;;;;5013568;28;20045;-80
2023/07/19 09:58:13;;;;;;;74.60;70.68;;;25.20;99.30;;;;;;4994348;28;20100;-80
2023/07/19 10:00:39;;;;;;;50.80;47.75;;;24.80;99.00;;;;;;5010525;28;20128;-81
2023/07/19 10:03:08;;;;;;;38.97;36.67;;;24.30;99.60;;;;;;5010561;28;20522;-81
2023/07/19 10:05:36;;;;;;;26.27;24.40;;;23.90;99.30;;;;;;5010684;28;20445;-80
2023/07/19 10:08:04;;;;;;;8.40;7.57;;;23.40;99.80;;;;;;5010132;28;20186;-81
2023/07/19 10:10:40;;;;;;;6.88;5.70;;;23.10;99.90;;;;;;5011609;28;20042;-81
2023/07/19 10:13:06;;;;;;;5.38;3.65;;;22.70;99.90;;;;;;5011541;28;20585;-81
2023/07/19 10:15:33;;;;;;;5.05;3.17;;;22.50;99.90;;;;;;5011505;28;20042;-80
2023/07/19 10:17:59;;;;;;;10.30;2.72;;;22.40;99.90;;;;;;5028724;28;20484;-81
2023/07/19 10:20:29;;;;;;;6.32;2.97;;;22.40;99.90;;;;;;5029992;28;20056;-80
2023/07/19 10:22:57;;;;;;;4.80;2.88;;;22.50;99.90;;;;;;5029314;28;20052;-81
2023/07/19 10:25:24;;;;;;;5.50;4.15;;;22.70;99.90;;;;;;5029807;28;20041;-81
2023/07/19 10:28:10;;;;;;;7.60;6.88;;;23.10;99.90;;;;;;5028141;28;20037;-81
2023/07/19 10:31:02;;;;;;;8.88;8.18;;;23.60;99.90;;;;;;5031015;28;20073;-81
2023/07/19 10:33:30;;;;;;;10.85;7.85;;;23.80;99.90;;;;;;5029765;28;20041;-81
2023/07/19 10:36:07;;;;;;;6.78;5.13;;;23.60;99.90;;;;;;5010909;28;20095;-80
2023/07/19 10:38:32;;;;;;;7.47;3.95;;;23.30;99.90;;;;;;4993668;28;20106;-81
2023/07/19 10:41:04;;;;;;;6.53;2.97;;;23.10;99.90;;;;;;5009919;28;20046;-81
2023/07/19 10:43:32;;;;;;;4.88;2.70;;;22.90;99.90;;;;;;4993304;28;20238;-80
2023/07/19 10:46:03;;;;;;;4.70;2.47;;;22.70;99.90;;;;;;4994869;28;20042;-80
2023/07/19 10:48:36;;;;;;;5.35;2.90;;;22.60;99.90;;;;;;5012342;28;20038;-80
2023/07/19 10:51:03;;;;;;;4.97;2.33;;;22.50;99.90;;;;;;5028663;28;20554;-80
2023/07/19 10:53:39;;;;;;;4.68;3.42;;;22.40;99.90;;;;;;5029331;28;20041;-80
2023/07/19 10:56:06;;;;;;;5.63;1.92;;;22.40;99.90;;;;;;5028957;28;20049;-80
2023/07/19 10:58:31;;;;;;;6.80;2.78;;;22.50;99.90;;;;;;5029300;28;20043;-80
2023/07/19 11:00:57;;;;;;;6.32;2.25;;;22.70;99.90;;;;;;5013130;28;20037;-81
2023/07/19 11:03:26;;;;;;;6.30;2.67;;;23.00;99.90;;;;;;5029348;28;20044;-81
2023/07/19 11:05:53;;;;;;;4.25;2.53;;;23.40;99.90;;;;;;5013772;28;20048;-81
2023/07/19 11:08:22;;;;;;;6.90;5.60;;;23.90;99.90;;;;;;5009327;28;20042;-80
2023/07/19 11:10:53;;;;;;;9.13;7.53;;;24.00;99.90;;;;;;5009182;28;20040;-81
2023/07/19 11:13:20;;;;;;;8.00;5.40;;;24.00;99.90;;;;;;5009314;28;20420;-81
2023/07/19 11:16:01;;;;;;;9.48;5.93;;;23.80;99.90;;;;;;5007162;28;20033;-81
2023/07/19 11:18:35;;;;;;;8.35;5.22;;;23.80;99.90;;;;;;5012210;28;20057;-80
2023/07/19 11:21:02;;;;;;;5.05;3.88;;;23.60;99.90;;;;;;5028477;28;20045;-80
2023/07/19 11:23:29;;;;;;;6.32;3.58;;;23.30;99.90;;;;;;5029966;28;20130;-80
2023/07/19 11:26:06;;;;;;;6.88;3.45;;;23.10;99.90;;;;;;4996332;28;20088;-80
2023/07/19 11:28:57;;;;;;;10.07;3.53;;;23.00;99.90;;;;;;5008857;28;20064;-80
2023/07/19 11:31:34;;;;;;;5.95;1.90;;;22.80;99.90;;;;;;5008728;28;20131;-79
2023/07/19 11:34:11;;;;;;;7.10;2.45;;;22.20;99.90;;;;;;5008397;28;20064;-80
2023/07/19 11:36:44;;;;;;;2.97;1.88;;;22.00;99.90;;;;;;5028643;28;20120;-80
2023/07/19 11:39:17;;;;;;;;;;;22.00;99.90;;;;;;5028683;28;20041;-80
2023/07/19 11:41:43;;;;;;;8.00;1.90;;;22.20;99.90;;;;;;5011718;28;20148;-80
2023/07/19 11:44:16;;;;;;;7.50;1.90;;;22.40;99.90;;;;;;5027186;28;20091;-80
2023/07/19 11:46:42;;;;;;;4.47;2.38;;;22.70;99.90;;;;;;5008765;28;20045;-80
2023/07/19 11:49:09;;;;;;;6.00;3.22;;;22.90;99.90;;;;;;5009167;28;20395;-80
2023/07/19 11:51:36;;;;;;;4.60;3.10;;;23.20;99.90;;;;;;4991960;28;20064;-80
2023/07/19 11:54:01;;;;;;;4.30;2.90;;;23.20;99.90;;;;;;5008473;28;20412;-80
2023/07/19 11:56:29;;;;;;;4.95;2.50;;;23.30;99.90;;;;;;5029083;28;20029;-81
2023/07/19 11:58:55;;;;;;;6.55;3.03;;;23.20;99.90;;;;;;5027831;28;20043;-80
2023/07/19 12:01:21;;;;;;;4.65;3.13;;;23.20;99.90;;;;;;5011942;28;20431;-80
2023/07/19 12:03:47;;;;;;;6.72;3.92;;;23.20;99.90;;;;;;5027456;28;20041;-80
2023/07/19 12:06:14;;;;;;;3.53;2.10;;;23.30;99.90;;;;;;5010181;28;20038;-80
2023/07/19 12:08:44;;;;;;;3.53;1.85;;;23.60;99.90;;;;;;5008401;28;20042;-80
2023/07/19 12:11:10;;;;;;;6.57;2.08;;;23.80;99.00;;;;;;5008037;28;20080;-80
2023/07/19 12:13:36;;;;;;;3.95;2.30;;;24.00;99.40;;;;;;5007892;28;20045;-80
2023/07/19 12:16:02;;;;;;;9.35;8.55;;;24.00;99.00;;;;;;5007342;28;20072;-81
2023/07/19 12:18:29;;;;;;;5.40;4.50;;;23.80;98.50;;;;;;5010406;28;20495;-80
2023/07/19 12:20:56;;;;;;;4.78;3.47;;;23.60;99.30;;;;;;5011131;28;20033;-80
2023/07/19 12:23:22;;;;;;;6.63;4.47;;;23.50;99.60;;;;;;5027991;28;20131;-80
2023/07/19 12:25:48;;;;;;;5.15;4.20;;;23.60;99.90;;;;;;4997672;28;20536;-80
2023/07/19 12:28:14;;;;;;;5.97;4.03;;;23.60;99.70;;;;;;5007797;28;20042;-80
2023/07/19 12:30:41;;;;;;;5.68;3.53;;;23.50;99.90;;;;;;5008136;28;20155;-80
2023/07/19 12:33:07;;;;;;;8.27;5.15;;;23.40;99.00;;;;;;4991225;28;20096;-80
2023/07/19 12:35:32;;;;;;;3.58;3.28;;;23.50;99.90;;;;;;5018783;28;20030;-80
2023/07/19 12:37:58;;;;;;;4.43;4.03;;;23.50;99.70;;;;;;5027704;28;20071;-80